Tiempo atmosférico en la estación meteorológica de Arcos de Jalón, Soria (863 m.)

Fecha
DESCASC
Temp. máxima en grados centígrados (hora)
DESCASC
Temp. mínima en grados centígrados (hora)
DESCASC
Temp. media en grados centígrados
DESCASC
Racha de viento máxima en m/sg (hora)
DESCASC
Velocidad máxima media en intervalos de 10 minutos(hora)
DESCASC
Precipitaciones diarias en mm
DESCASC
Precipitaciones de 00:00 a 06:00 en mm
DESCASC
Precipitaciones de 06:00 a 12:00 en mm
DESCASC
Precipitaciones de 12:00 a 18:00 en mm
DESCASC
Precipitaciones de 18:00 a 24:00 en mm
DESCASC
23-11-2017 17.6 (15:10) 8.9 (04:40) 13.3 13.61 (12:30) 9.72 (13:00) 0 0 0 0 0
22-11-2017 18.5 (15:10) 3.5 (08:00) 11 11.11 (18:40) 7.78 (23:59) 0 0 0 0 0
21-11-2017 18.9 (15:30) 2.5 (06:20) 10.7 7.22 (05:00) 5.56 (05:00) 0 0 0 0 0
20-11-2017 19.4 (15:10) 0.4 (06:50) 9.9 6.39 (15:10) 4.44 (09:10) 0 0 0 0 0
19-11-2017 17.8 (16:10) -1.8 (-00:0) 8 5.83 (05:30) 4.44 (06:20) 0 0 0 0 0
18-11-2017 16.6 (14:40) 1.6 (00:00) 9.1 5.83 (12:20) 4.44 (03:00) 0 0 0 0 0
17-11-2017 18.8 (16:20) 1.3 (00:00) 10 5 (00:20) 3.89 (00:20) 0 0 0 0 0
16-11-2017 18.7 (15:10) -0.1 (00:00) 9.3 7.5 (16:20) 5 (17:00) 0 0 0 0 0
15-11-2017 17.5 (15:40) -2.5 (-00:0) 7.5 5.83 (05:30) 4.17 (08:50) 0 0 0 0 0
14-11-2017 13.3 (14:20) -0.8 (-00:0) 6.3 8.89 (13:40) 5.83 (15:40) 0 0 0 0 0
13-11-2017 8.3 (13:20) 2.3 (00:00) 5.3 11.11 (11:00) 6.11 (02:20) 0 0 0 0 0
12-11-2017 16.7 (14:30) 0.3 (00:00) 8.5 9.17 (16:20) 6.67 (16:20) 0 0 0 0 0
11-11-2017 15.3 (15:20) 2.8 (00:00) 9.1 7.22 (13:40) 5 (17:10) 0 0 0 0 0
10-11-2017 13.9 (14:30) 0.1 (00:00) 7 11.39 (15:30) 7.5 (15:00) 0 0 0 0 0
09-11-2017 10.2 (15:20) -0.9 (-00:0) 4.6 10.28 (16:30) 6.11 (11:10) 0 0 0 0 0
08-11-2017 11.4 (13:30) 0.1 (00:00) 5.7 9.17 (16:30) 6.11 (16:40) 0 0 0 0 0
07-11-2017 14.1 (15:50) 1.1 (00:00) 7.6 10.28 (16:40) 7.5 (16:30) 0 0 0 0 0
06-11-2017 11.4 (14:50) 2.6 (00:00) 7 9.17 (05:20) 5.83 (05:30) 0 0 0 0 0
05-11-2017 12.7 (13:30) 3.8 (00:00) 8.2 11.11 (15:30) 6.39 (15:30) 0 0 0 0 0
04-11-2017 13.9 (16:10) 7.5 (00:00) 10.7 8.89 (10:50) 6.11 (16:30) 5 2.2 1.4 1.4 0
03-11-2017 17.7 (15:50) 7.9 (00:00) 12.8 11.67 (11:20) 6.39 (11:20) 0 0 0 0 0
02-11-2017 18.9 (15:20) 5.1 (05:20) 12 7.5 (16:20) 5.28 (16:20) 0 0 0 0 0
01-11-2017 19.6 (15:10) 3 (00:00) 11.3 8.06 (13:50) 5.28 (11:50) 0 0 0 0 0
31-10-2017 19.3 (15:30) 1 (00:00) 10.1 7.78 (16:40) 5 (15:40) 0 0 0 0 0
30-10-2017 16.9 (14:20) 3.7 (00:00) 10.3 12.22 (11:20) 6.39 (11:30) 0 0 0 0 0
29-10-2017 19.6 (14:10) 3.2 (00:00) 11.4 7.78 (14:50) 4.44 (14:30) 0 0 0 0 0
28-10-2017 18.5 (14:10) 4.9 (00:00) 11.7 10.83 (13:20) 6.39 (13:20) 0 0 0 0 0
27-10-2017 25.3 (17:10) 8.5 (00:00) 16.9 8.06 (16:20) 4.72 (19:30) 0 0 0 0 0
26-10-2017 27.6 (16:20) 8.4 (00:00) 18 6.39 (07:50) 5.28 (07:50) 0 0 0 0 0

Gráficas

Temp. máximas Temp. mínimas Temp. medias Precipitaciones Rachas de viento máximas Velocidades máximas media en intervalos de 10 minutos

Datos horarios

Fecha y hora oficial Temperatura (ºC) Velocidad del viento (km/h) Dirección del viento Racha (km/h) Dirección de racha Precipitación (mm) Presión (hPa) Tendencia (hPa) Humedad (%)
2017-11-24 23:00:00 10.9 13 Sudoeste 29 Sur 0 -- -- 74
2017-11-24 22:00:00 11.3 13 Sur 25 Sur 0 -- -- 74
2017-11-24 21:00:00 11.8 10 Sur 26 Sudoeste 0 -- -- 72
2017-11-24 20:00:00 12.5 15 Sur 39 Sur 0 -- -- 71
2017-11-24 19:00:00 12.8 19 Sur 31 Sudoeste 0 -- -- 67
2017-11-24 18:00:00 13.4 18 Sudoeste 33 Sur 0 -- -- 63
2017-11-24 17:00:00 13.8 23 Sudoeste 36 Sur 0 -- -- 60
2017-11-24 16:00:00 14.7 23 Sudoeste 39 Sur 0 -- -- 58
2017-11-24 15:00:00 14.6 23 Sudoeste 39 Sudoeste 0 -- -- 57
2017-11-24 14:00:00 15.1 23 Sudoeste 44 Sur 0 -- -- 51
2017-11-24 13:00:00 13.9 32 Sur 47 Sur 0 -- -- 56
2017-11-24 12:00:00 14.5 28 Sur 50 Sur 0 -- -- 46
2017-11-24 11:00:00 14.2 25 Sur 42 Sur 0 -- -- 51
2017-11-24 10:00:00 12.7 25 Sur 41 Sur 0 -- -- 58
2017-11-24 09:00:00 11.2 21 Sudoeste 32 Sudoeste 0 -- -- 52
2017-11-24 08:00:00 10 12 Sudoeste 31 Sudoeste 0 -- -- 54
2017-11-24 07:00:00 10.9 23 Sur 42 Sudoeste 0 -- -- 51
2017-11-24 06:00:00 11.5 21 Sur 41 Sur 0 -- -- 49
2017-11-24 05:00:00 11.1 13 Sudoeste 31 Sur 0 -- -- 49
2017-11-24 04:00:00 10.9 14 Sur 24 Sur 0 -- -- 46
2017-11-24 03:00:00 9.8 6 Sudoeste 14 Sur 0 -- -- 48
2017-11-24 02:00:00 10.8 9 Oeste 12 Oeste 0 -- -- 46
2017-11-24 01:00:00 11 4 Sudoeste 31 Sur 0 -- -- 44
2017-11-24 00:00:00 11.6 19 Sudoeste 32 Sur 0 -- -- 43
2017-11-23 23:00:00 12.3 21 Sudoeste 30 Sudoeste 0 -- -- 42
2017-11-23 22:00:00 10.2 10 Sudoeste 19 Sudoeste 0 -- -- 47
2017-11-23 21:00:00 10.8 12 Sudoeste 33 Sur 0 -- -- 45
2017-11-23 20:00:00 12.5 22 Sur 37 Sur 0 -- -- 41
2017-11-23 19:00:00 13 21 Sudoeste 35 Sur 0 -- -- 42
2017-11-23 18:00:00 13.8 21 Sudoeste 36 Sudoeste 0 -- -- 41
2017-11-23 17:00:00 15.2 28 Sudoeste 44 Sudoeste 0 -- -- 38
2017-11-23 16:00:00 16.5 29 Sur 40 Sur 0 -- -- 35
2017-11-23 15:00:00 17.5 27 Sur 42 Sur 0 -- -- 33
2017-11-23 14:00:00 17.1 30 Sur 49 Sudoeste 0 -- -- 33
2017-11-23 13:00:00 16.5 35 Sur 49 Sur 0 -- -- 33
2017-11-23 12:00:00 15.8 26 Sur 42 Sur 0 -- -- 35
2017-11-23 11:00:00 15 26 Sur 42 Sur 0 -- -- 36
2017-11-23 10:00:00 12.5 28 Sur 41 Sur 0 -- -- 39
2017-11-23 09:00:00 11 20 Sur 32 Sudoeste 0 -- -- 42
2017-11-23 08:00:00 11 16 Sudoeste 36 Sudoeste 0 -- -- 41
2017-11-23 07:00:00 11.2 21 Sudoeste 33 Sur 0 -- -- 40
2017-11-23 06:00:00 11.3 17 Sur 30 Sur 0 -- -- 39
2017-11-23 05:00:00 9.6 15 Sudoeste 31 Sudoeste 0 -- -- 43
2017-11-23 04:00:00 9.5 17 Sudoeste 36 Sudoeste 0 -- -- 43
2017-11-23 03:00:00 10.1 21 Sudoeste 32 Sudoeste 0 -- -- 40
2017-11-23 02:00:00 11.5 21 Sur 44 Sur 0 -- -- 37
2017-11-23 01:00:00 11.2 23 Sur 40 Sur 0 -- -- 38
2017-11-23 00:00:00 10.8 28 Sudoeste 37 Sudoeste 0 -- -- 39
2017-11-22 23:00:00 11.1 25 Sudoeste 36 Sudoeste 0 -- -- 39
2017-11-22 22:00:00 11.5 22 Sur 38 Sur 0 -- -- 37
2017-11-22 21:00:00 11.3 14 Sur 27 Sur 0 -- -- 38
2017-11-22 20:00:00 12.3 18 Sur 37 Sur 0 -- -- 36
2017-11-22 19:00:00 13 24 Sur 40 Sur 0 -- -- 36
2017-11-22 18:00:00 14 17 Sudoeste 30 Sur 0 -- -- 34
2017-11-22 17:00:00 16.7 20 Sur 30 Sur 0 -- -- 30
2017-11-22 16:00:00 18 23 Sur 35 Sur 0 -- -- 28
2017-11-22 15:00:00 18.4 20 Sur 33 Sur 0 -- -- 28
2017-11-22 14:00:00 18.1 18 Sur 36 Sudoeste 0 -- -- 28
2017-11-22 13:00:00 16.9 18 Sudoeste 29 Sudoeste 0 -- -- 30
2017-11-22 12:00:00 12.6 3 Sur 7 Este 0 -- -- 42
2017-11-22 11:00:00 6.4 3 Nordeste 13 Nordeste 0 -- -- 52
2017-11-22 10:00:00 4 8 Nordeste 13 Nordeste 0 -- -- 58
2017-11-22 09:00:00 4.8 2 Nordeste 18 Oeste 0 -- -- 59
2017-11-22 08:00:00 3.5 16 Oeste 22 Oeste 0 -- -- 66
2017-11-22 07:00:00 4.2 11 Oeste 17 Oeste 0 -- -- 63
2017-11-22 06:00:00 5.1 12 Sudoeste 21 Sudoeste 0 -- -- 60
2017-11-22 05:00:00 4 12 Oeste 18 Sudoeste 0 -- -- 63
2017-11-22 04:00:00 4.7 14 Sudoeste 20 Sudoeste 0 -- -- 60
2017-11-22 03:00:00 4.4 15 Sudoeste 22 Oeste 0 -- -- 59
2017-11-22 02:00:00 5.3 14 Oeste 20 Oeste 0 -- -- 56
2017-11-22 01:00:00 4.8 15 Oeste 21 Oeste 0 -- -- 55
2017-11-22 00:00:00 4.4 9 Sudoeste 18 Sudoeste 0 -- -- 56
2017-11-21 23:00:00 5.3 12 Sudoeste 21 Oeste 0 -- -- 55
2017-11-21 22:00:00 5.6 7 Sudoeste 16 Sudoeste 0 -- -- 54
2017-11-21 21:00:00 6.8 10 Oeste 16 Sudoeste 0 -- -- 52
2017-11-21 20:00:00 7.4 13 Oeste 17 Sudoeste 0 -- -- 44
2017-11-21 19:00:00 8.4 12 Sudoeste 17 Sudoeste 0 -- -- 41
2017-11-21 18:00:00 12.5 0 Calma 4 Sudoeste 0 -- -- 33
2017-11-21 17:00:00 18 0 Calma 9 Nordeste 0 -- -- 27
2017-11-21 16:00:00 18.4 5 Nordeste 17 Nordeste 0 -- -- 26
2017-11-21 15:00:00 18.4 5 Nordeste 14 Nordeste 0 -- -- 26
2017-11-21 14:00:00 17 8 Nordeste 12 Nordeste 0 -- -- 31
2017-11-21 13:00:00 14.7 8 Nordeste 12 Nordeste 0 -- -- 37
2017-11-21 12:00:00 12.1 5 Nordeste 9 Este 0 -- -- 42
2017-11-21 11:00:00 8.5 6 Nordeste 11 Nordeste 0 -- -- 48
2017-11-21 10:00:00 7.6 10 Oeste 22 Sudoeste 0 -- -- 53
2017-11-21 09:00:00 4.3 15 Sudoeste 23 Sudoeste 0 -- -- 60
2017-11-21 08:00:00 2.5 17 Sudoeste 22 Oeste 0 -- -- 64
2017-11-21 07:00:00 2.8 15 Sudoeste 20 Sudoeste 0 -- -- 63
2017-11-21 06:00:00 3 19 Oeste 24 Sudoeste 0 -- -- 62
2017-11-21 05:00:00 3.1 20 Oeste 26 Sudoeste 0 -- -- 62
2017-11-21 04:00:00 3.2 17 Oeste 22 Oeste 0 -- -- 61
2017-11-21 03:00:00 3.1 16 Oeste 18 Oeste 0 -- -- 61
2017-11-21 02:00:00 3.9 7 Sudoeste 15 Oeste 0 -- -- 58
2017-11-21 01:00:00 4.8 6 Sudoeste 14 Oeste 0 -- -- 56
2017-11-21 00:00:00 5.5 9 Oeste 13 Oeste 0 -- -- 55
2017-11-20 23:00:00 6 11 Oeste 18 Sudoeste 0 -- -- 52
2017-11-20 22:00:00 6.9 9 Oeste 14 Sudoeste 0 -- -- 49
2017-11-20 21:00:00 6.7 6 Sudoeste 12 Sudoeste 0 -- -- 49
2017-11-20 20:00:00 8.9 2 Oeste 19 Oeste 0 -- -- 43
2017-11-20 19:00:00 10.3 12 Oeste 17 Sudoeste 0 -- -- 36
2017-11-20 18:00:00 12.8 5 Sudoeste 13 Oeste 0 -- -- 30
2017-11-20 17:00:00 17.9 12 Sudoeste 20 Sudoeste 0 -- -- 22
2017-11-20 16:00:00 19.1 14 Sudoeste 23 Sudoeste 0 -- -- 19
2017-11-20 15:00:00 19 8 Sudoeste 16 Oeste 0 -- -- 22
2017-11-20 14:00:00 17.4 6 Nordeste 10 Nordeste 0 -- -- 28
2017-11-20 13:00:00 14.2 5 Nordeste 12 Nordeste 0 -- -- 35
2017-11-20 12:00:00 10.9 7 Nordeste 13 Nordeste 0 -- -- 41
2017-11-20 11:00:00 10.5 7 Nordeste 14 Oeste 0 -- -- 41
2017-11-20 10:00:00 7.8 11 Oeste 22 Sudoeste 0 -- -- 46
2017-11-20 09:00:00 2.9 12 Oeste 18 Sudoeste 0 -- -- 62
2017-11-20 08:00:00 1.1 13 Sudoeste 17 Sudoeste 0 -- -- 67
2017-11-20 07:00:00 0.4 11 Sudoeste 15 Sudoeste 0 -- -- 69
2017-11-20 06:00:00 1 9 Sudoeste 13 Sudoeste 0 -- -- 67
2017-11-20 05:00:00 1.8 12 Sudoeste 18 Sudoeste 0 -- -- 63
2017-11-20 04:00:00 2.1 15 Sudoeste 19 Sudoeste 0 -- -- 61
2017-11-20 03:00:00 2.8 12 Sudoeste 15 Sudoeste 0 -- -- 58
2017-11-20 02:00:00 3.1 14 Sudoeste 21 Sudoeste 0 -- -- 56
2017-11-20 01:00:00 3.2 14 Sudoeste 16 Sudoeste 0 -- -- 57
2017-11-20 00:00:00 4.2 13 Sudoeste 15 Sudoeste 0 -- -- 56
2017-11-19 23:00:00 4.7 10 Sudoeste 14 Sudoeste 0 -- -- 53
2017-11-19 22:00:00 5.1 11 Sudoeste 19 Oeste 0 -- -- 49
2017-11-19 21:00:00 5.4 12 Sudoeste 16 Sudoeste 0 -- -- 44
2017-11-19 20:00:00 7 11 Oeste 13 Oeste 0 -- -- 40
2017-11-19 19:00:00 7.8 11 Sudoeste 16 Sudoeste 0 -- -- 35
2017-11-19 18:00:00 10.9 9 Sudoeste 12 Oeste 0 -- -- 27
2017-11-19 17:00:00 16.7 9 Oeste 13 Oeste 0 -- -- 21
2017-11-19 16:00:00 17.6 8 Oeste 15 Oeste 0 -- -- 18
2017-11-19 15:00:00 17.6 4 Oeste 15 Oeste 0 -- -- 16
2017-11-19 14:00:00 16.7 5 Noroeste 16 Oeste 0 -- -- 23
2017-11-19 13:00:00 14.3 2 Nordeste 5 Nordeste 0 -- -- 40
2017-11-19 12:00:00 10.9 3 Nordeste 8 Este 0 -- -- 48
2017-11-19 11:00:00 8.2 3 Nordeste 5 Nordeste 0 -- -- 54
2017-11-19 10:00:00 4.3 2 Sur 10 Sudoeste 0 -- -- 66
2017-11-19 09:00:00 0.3 7 Sudoeste 15 Oeste 0 -- -- 77
2017-11-19 08:00:00 -1.4 10 Sudoeste 15 Sudoeste 0 -- -- 83
2017-11-19 07:00:00 -0.8 10 Sudoeste 20 Sudoeste 0 -- -- 82
2017-11-19 06:00:00 -0.5 13 Sudoeste 21 Sudoeste 0 -- -- 83
2017-11-19 05:00:00 -0.7 12 Sudoeste 15 Sudoeste 0 -- -- 84
2017-11-19 04:00:00 -0.8 5 Sudoeste 16 Sudoeste 0 -- -- 83
2017-11-19 03:00:00 0.6 12 Sudoeste 19 Sudoeste 0 -- -- 82
2017-11-19 02:00:00 1.5 14 Sudoeste 19 Sudoeste 0 -- -- 79
2017-11-19 01:00:00 1.6 12 Sudoeste 15 Sudoeste 0 -- -- 79
2017-11-19 00:00:00 2 11 Sudoeste 14 Sudoeste 0 -- -- 75
2017-11-18 23:00:00 1.8 9 Sudoeste 13 Sudoeste 0 -- -- 72
2017-11-18 22:00:00 3 5 Sur 12 Sudoeste 0 -- -- 67
2017-11-18 21:00:00 4.2 4 Sudoeste 6 Sudoeste 0 -- -- 64
2017-11-18 20:00:00 6 0 Calma 5 Sudoeste 0 -- -- 58
2017-11-18 19:00:00 10.1 0 Calma 12 Norte 0 -- -- 47
2017-11-18 18:00:00 12.8 5 Norte 14 Norte 0 -- -- 41
2017-11-18 17:00:00 15.3 8 Norte 17 Norte 0 -- -- 36
2017-11-18 16:00:00 16.3 10 Norte 19 Nordeste 0 -- -- 37
2017-11-18 15:00:00 16.4 9 Norte 19 Norte 0 -- -- 36
2017-11-18 14:00:00 16.2 6 Norte 17 Nordeste 0 -- -- 36
2017-11-18 13:00:00 15 12 Norte 21 Norte 0 -- -- 39
2017-11-18 12:00:00 13.9 7 Noroeste 16 Noroeste 0 -- -- 48
2017-11-18 11:00:00 12.8 4 Sudeste 9 Sudeste 0 -- -- 49
2017-11-18 10:00:00 8.3 4 Sur 14 Sudoeste 0 -- -- 56
2017-11-18 09:00:00 4.4 13 Sudoeste 18 Sudoeste 0 -- -- 67
2017-11-18 08:00:00 2.4 12 Sudoeste 18 Sudoeste 0 -- -- 70
2017-11-18 07:00:00 2.8 13 Sudoeste 17 Sudoeste 0 -- -- 69
2017-11-18 06:00:00 3 13 Sudoeste 20 Sudoeste 0 -- -- 68
2017-11-18 05:00:00 3.5 12 Sudoeste 17 Sudoeste 0 -- -- 67
2017-11-18 04:00:00 3.6 14 Sudoeste 17 Sudoeste 0 -- -- 67
2017-11-18 03:00:00 3.9 16 Sudoeste 19 Sudoeste 0 -- -- 66
2017-11-18 02:00:00 3.8 9 Sudoeste 17 Sudoeste 0 -- -- 66
2017-11-18 01:00:00 4.6 13 Sudoeste 18 Sudoeste 0 -- -- 63
2017-11-18 00:00:00 4.5 14 Sudoeste 16 Sudoeste 0 -- -- 63
2017-11-17 23:00:00 5 9 Sudoeste 15 Sudoeste 0 -- -- 61
2017-11-17 22:00:00 5.7 12 Sudoeste 16 Sudoeste 0 -- -- 59
2017-11-17 21:00:00 7 8 Sudoeste 12 Sudoeste 0 -- -- 54
2017-11-17 20:00:00 7.8 7 Sudoeste 9 Sudoeste 0 -- -- 51
2017-11-17 19:00:00 9.4 7 Sudoeste 12 Sudoeste 0 -- -- 47
2017-11-17 18:00:00 13.6 0 Calma 3 Este 0 -- -- 37
2017-11-17 17:00:00 18.1 0 Calma 8 Nordeste 0 -- -- 30
2017-11-17 16:00:00 18.4 4 Nordeste 8 Nordeste 0 -- -- 28
2017-11-17 15:00:00 17.9 4 Este 12 Este 0 -- -- 29
2017-11-17 14:00:00 17 3 Sudeste 12 Nordeste 0 -- -- 31
2017-11-17 13:00:00 15.8 5 Este 10 Este 0 -- -- 33
2017-11-17 12:00:00 14.4 3 Nordeste 9 Este 0 -- -- 37
2017-11-17 11:00:00 12.8 3 Sur 10 Oeste 0 -- -- 42
2017-11-17 10:00:00 8.7 7 Sudoeste 15 Sudoeste 0 -- -- 54
2017-11-17 09:00:00 4.1 12 Sudoeste 17 Sudoeste 0 -- -- 65
2017-11-17 08:00:00 1.3 6 Sudoeste 17 Oeste 0 -- -- 71
2017-11-17 07:00:00 2.7 8 Sudoeste 18 Sudoeste 0 -- -- 66
2017-11-17 06:00:00 2.8 12 Sudoeste 17 Sudoeste 0 -- -- 66
2017-11-17 05:00:00 3.1 13 Sudoeste 16 Sudoeste 0 -- -- 65
2017-11-17 04:00:00 3 13 Sudoeste 15 Sudoeste 0 -- -- 66
2017-11-17 03:00:00 4.1 12 Sudoeste 15 Sudoeste 0 -- -- 63
2017-11-17 02:00:00 4.2 11 Sudoeste 18 Sudoeste 0 -- -- 62
2017-11-17 01:00:00 5.6 13 Sudoeste 18 Sudoeste 0 -- -- 58
2017-11-17 00:00:00 5.5 13 Sudoeste 19 Sudoeste 0 -- -- 58
2017-11-16 23:00:00 5.5 14 Sudoeste 17 Sudoeste 0 -- -- 58
2017-11-16 22:00:00 5.5 10 Sudoeste 15 Sudoeste 0 -- -- 56
2017-11-16 21:00:00 7.1 10 Oeste 15 Oeste 0 -- -- 52
2017-11-16 20:00:00 9.4 2 Noroeste 6 Oeste 0 -- -- 46
2017-11-16 19:00:00 11.5 4 Noroeste 12 Norte 0 -- -- 40
2017-11-16 18:00:00 15.1 4 Norte 27 Norte 0 -- -- 33
2017-11-16 17:00:00 17.2 18 Norte 27 Norte 0 -- -- 30
2017-11-16 16:00:00 18.4 14 Norte 27 Norte 0 -- -- 27
2017-11-16 15:00:00 18.6 13 Norte 26 Norte 0 -- -- 26
2017-11-16 14:00:00 17.9 6 Noroeste 18 Noroeste 0 -- -- 30
2017-11-16 13:00:00 16.6 6 Norte 16 Noroeste 0 -- -- 30
2017-11-16 12:00:00 14.6 4 Nordeste 8 Nordeste 0 -- -- 37
2017-11-16 11:00:00 11.9 2 Este 5 Este 0 -- -- 44
2017-11-16 10:00:00 7.3 2 Sur 12 Sudoeste 0 -- -- 59
2017-11-16 09:00:00 2.6 10 Sudoeste 13 Sudoeste 0 -- -- 71
2017-11-16 08:00:00 1.2 11 Sudoeste 15 Oeste 0 -- -- 74
2017-11-16 07:00:00 2.2 12 Oeste 15 Oeste 0 -- -- 71
2017-11-16 06:00:00 0 10 Sudoeste 12 Sudoeste 0 -- -- 76
2017-11-16 05:00:00 0.9 9 Sudoeste 12 Sudoeste 0 -- -- 75
2017-11-16 04:00:00 0.3 7 Sudoeste 14 Sudoeste 0 -- -- 76
2017-11-16 03:00:00 0.9 10 Sudoeste 17 Oeste 0 -- -- 73
2017-11-16 02:00:00 4.7 13 Oeste 19 Sudoeste 0 -- -- 65
2017-11-16 01:00:00 5.3 12 Sudoeste 21 Oeste 0 -- -- 62
2017-11-16 00:00:00 5.7 12 Sudoeste 17 Sudoeste 0 -- -- 61
2017-11-15 23:00:00 6.1 11 Sudoeste 17 Oeste 0 -- -- 60
2017-11-15 22:00:00 6.8 11 Oeste 17 Oeste 0 -- -- 58
2017-11-15 21:00:00 7.6 13 Oeste 18 Oeste 0 -- -- 56
2017-11-15 20:00:00 6.3 10 Sudoeste 14 Sudoeste 0 -- -- 56
2017-11-15 19:00:00 8.9 12 Sudoeste 14 Sudoeste 0 -- -- 49
2017-11-15 18:00:00 11.6 6 Oeste 11 Sudoeste 0 -- -- 40
2017-11-15 17:00:00 15.9 8 Sudoeste 18 Sudoeste 0 -- -- 30
2017-11-15 16:00:00 16.8 12 Sudoeste 20 Sur 0 -- -- 28
2017-11-15 15:00:00 16.5 7 Sur 15 Sudoeste 0 -- -- 28
2017-11-15 14:00:00 13.9 4 Nordeste 10 Nordeste 0 -- -- 32
2017-11-15 13:00:00 10.9 6 Nordeste 13 Este 0 -- -- 35
2017-11-15 12:00:00 8.1 7 Nordeste 11 Nordeste 0 -- -- 40
2017-11-15 11:00:00 5.2 6 Nordeste 10 Norte 0 -- -- 45
2017-11-15 10:00:00 3.9 3 Nordeste 14 Oeste 0 -- -- 49
2017-11-15 09:00:00 0.7 13 Sudoeste 21 Sudoeste 0 -- -- 58
2017-11-15 08:00:00 -2.2 8 Oeste 11 Oeste 0 -- -- 65
2017-11-15 07:00:00 -1.6 8 Sudoeste 17 Sudoeste 0 -- -- 62
2017-11-15 06:00:00 -0.9 14 Sudoeste 21 Sudoeste 0 -- -- 60
2017-11-15 05:00:00 -0.9 12 Sudoeste 15 Oeste 0 -- -- 60
2017-11-15 04:00:00 -0.4 11 Sudoeste 14 Sudoeste 0 -- -- 58
2017-11-15 03:00:00 -0.3 12 Sudoeste 15 Sudoeste 0 -- -- 58
2017-11-15 02:00:00 -0.3 9 Sudoeste 15 Sudoeste 0 -- -- 59
2017-11-15 01:00:00 -0.2 9 Sudoeste 15 Sudoeste 0 -- -- 59
2017-11-15 00:00:00 -0.2 11 Sudoeste 14 Sudoeste 0 -- -- 60
2017-11-14 23:00:00 1.4 9 Oeste 13 Oeste 0 -- -- 55
2017-11-14 22:00:00 2.4 6 Sudoeste 17 Oeste 0 -- -- 51
2017-11-14 21:00:00 2.6 6 Sudoeste 13 Sur 0 -- -- 50
2017-11-14 20:00:00 5 7 Sur 13 Noroeste 0 -- -- 43
2017-11-14 19:00:00 7.4 8 Noroeste 22 Noroeste 0 -- -- 37
2017-11-14 18:00:00 9.4 7 Norte 27 Norte 0 -- -- 33
2017-11-14 17:00:00 11.6 15 Norte 27 Norte 0 -- -- 28
2017-11-14 16:00:00 13.2 7 Norte 32 Norte 0 -- -- 25
2017-11-14 15:00:00 13.2 13 Norte 23 Norte 0 -- -- 23
2017-11-14 14:00:00 13.1 11 Norte 32 Norte 0 -- -- 22
2017-11-14 13:00:00 12.1 14 Noroeste 28 Oeste 0 -- -- 24
2017-11-14 12:00:00 10.5 15 Noroeste 29 Noroeste 0 -- -- 30
2017-11-14 11:00:00 7.7 8 Oeste 17 Sudoeste 0 -- -- 43
2017-11-14 10:00:00 5.7 3 Oeste 23 Oeste 0 -- -- 48
2017-11-14 09:00:00 2.1 0 Calma 13 Sudoeste 0 -- -- 66
2017-11-14 08:00:00 -0.8 5 Sudoeste 9 Sudoeste 0 -- -- 75
2017-11-14 07:00:00 0.2 3 Sudeste 7 Sur 0 -- -- 71
2017-11-14 06:00:00 0.2 4 Sur 10 Sur 0 -- -- 72
2017-11-14 05:00:00 -0.4 0 Calma 5 Sudeste 0 -- -- 76
2017-11-14 04:00:00 0.2 2 Sudoeste 6 Sudeste 0 -- -- 72
2017-11-14 03:00:00 2.3 4 Noroeste 19 Oeste 0 -- -- 67
2017-11-14 02:00:00 2.3 5 Norte 21 Noroeste 0 -- -- 67
2017-11-14 01:00:00 1.8 3 Noroeste 12 Oeste 0 -- -- 66
2017-11-14 00:00:00 2.3 2 Este 15 Oeste 0 -- -- 63
2017-11-13 23:00:00 2.8 4 Sudeste 24 Noroeste 0 -- -- 63
2017-11-13 22:00:00 3.1 9 Norte 28 Norte 0 -- -- 61
2017-11-13 21:00:00 3.3 9 Norte 23 Norte 0 -- -- 61
2017-11-13 20:00:00 3.3 4 Norte 21 Noroeste 0 -- -- 59
2017-11-13 19:00:00 3.7 2 Norte 34 Norte 0 -- -- 57
2017-11-13 18:00:00 4.9 13 Noroeste 39 Noroeste 0 -- -- 53
2017-11-13 17:00:00 6.4 19 Noroeste 35 Noroeste 0 -- -- 49
2017-11-13 16:00:00 7 12 Noroeste 39 Noroeste 0 -- -- 54
2017-11-13 15:00:00 7.1 19 Norte 39 Noroeste 0 -- -- 58
2017-11-13 14:00:00 7.2 14 Norte 36 Noroeste 0 -- -- 62
2017-11-13 13:00:00 7.8 17 Norte 32 Norte 0 -- -- 62
2017-11-13 12:00:00 7.8 10 Norte 32 Norte 0 -- -- 64
2017-11-13 11:00:00 7.7 18 Noroeste 40 Oeste 0 -- -- 61
2017-11-13 10:00:00 6.7 18 Noroeste 36 Noroeste 0 -- -- 64
2017-11-13 09:00:00 6.1 13 Noroeste 32 Oeste 0 -- -- 75
2017-11-13 08:00:00 6.5 15 Oeste 31 Oeste 0 -- -- 68
2017-11-13 07:00:00 6.5 17 Oeste 27 Oeste 0 -- -- 70
2017-11-13 06:00:00 6.9 21 Oeste 37 Oeste 0 -- -- 72
2017-11-13 05:00:00 5 5 Sudoeste 12 Sudoeste 0 -- -- 87
2017-11-13 04:00:00 6.1 12 Sudoeste 21 Sudoeste 0 -- -- 85
2017-11-13 03:00:00 6.7 14 Sudoeste 28 Oeste 0 -- -- 84
2017-11-13 02:00:00 6.9 17 Sudoeste 23 Sudoeste 0 -- -- 82
2017-11-13 01:00:00 6.4 9 Sudoeste 12 Sudoeste 0 -- -- 80
2017-11-13 00:00:00 8.1 7 Oeste 25 Sudoeste 0 -- -- 77
2017-11-12 23:00:00 7.9 10 Sudoeste 15 Oeste 0 -- -- 76
2017-11-12 22:00:00 7.8 7 Oeste 19 Oeste 0 -- -- 75
2017-11-12 21:00:00 9.9 10 Sudoeste 23 Sudoeste 0 -- -- 66
2017-11-12 20:00:00 9.9 17 Sudoeste 22 Oeste 0 -- -- 64
2017-11-12 19:00:00 10.6 11 Sudoeste 22 Oeste 0 -- -- 59
2017-11-12 18:00:00 12 12 Sudoeste 27 Oeste 0 -- -- 53
2017-11-12 17:00:00 14.6 21 Oeste 33 Sudoeste 0 -- -- 46
2017-11-12 16:00:00 16.3 16 Oeste 31 Oeste 0 -- -- 39
2017-11-12 15:00:00 16.6 18 Oeste 29 Sudoeste 0 -- -- 40
2017-11-12 14:00:00 16.4 19 Sudoeste 29 Sudoeste 0 -- -- 43
2017-11-12 13:00:00 14.8 4 Nordeste 13 Norte 0 -- -- 54
2017-11-12 12:00:00 12.5 5 Nordeste 10 Norte 0 -- -- 64
2017-11-12 11:00:00 9.5 8 Norte 12 Norte 0 -- -- 74
2017-11-12 10:00:00 7.2 2 Nordeste 4 Sudoeste 0 -- -- 81
2017-11-12 09:00:00 2.3 2 Oeste 6 Sudoeste 0 -- -- 95
2017-11-12 08:00:00 0.4 2 Sudoeste 5 Norte 0 -- -- 93
2017-11-12 07:00:00 0.6 0 Calma 3 Oeste 0 -- -- 93
2017-11-12 06:00:00 0.3 0 Calma 4 Norte 0 -- -- 92
2017-11-12 05:00:00 0.4 0 Calma 4 Norte 0 -- -- 91
2017-11-12 04:00:00 0.8 0 Calma 10 Oeste 0 -- -- 90
2017-11-12 03:00:00 1.3 8 Sudoeste 10 Sudoeste 0 -- -- 93
2017-11-12 02:00:00 1.3 2 Sudoeste 4 Oeste 0 -- -- 90
2017-11-12 01:00:00 2.5 2 Sur 14 Sudoeste 0 -- -- 88
2017-11-12 00:00:00 3.3 6 Sudoeste 10 Sudoeste 0 -- -- 89
2017-11-11 23:00:00 3.4 0 Calma 9 Sudoeste 0 -- -- 84
2017-11-11 22:00:00 4.6 2 Oeste 4 Oeste 0 -- -- 84
2017-11-11 21:00:00 5.7 2 Sudoeste 9 Oeste 0 -- -- 79
2017-11-11 20:00:00 7.2 8 Sudoeste 12 Sudoeste 0 -- -- 76
2017-11-11 19:00:00 9 9 Sudoeste 19 Sudoeste 0 -- -- 71
2017-11-11 18:00:00 11.6 14 Sudoeste 22 Sudoeste 0 -- -- 62
2017-11-11 17:00:00 14 15 Sudoeste 24 Oeste 0 -- -- 55
2017-11-11 16:00:00 15.3 12 Oeste 23 Oeste 0 -- -- 53
2017-11-11 15:00:00 15.1 15 Oeste 24 Oeste 0 -- -- 50
2017-11-11 14:00:00 14.6 12 Oeste 26 Oeste 0 -- -- 53
2017-11-11 13:00:00 13.9 12 Oeste 25 Oeste 0 -- -- 57
2017-11-11 12:00:00 13.4 8 Noroeste 18 Oeste 0 -- -- 55
2017-11-11 11:00:00 12 3 Oeste 15 Oeste 0 -- -- 63
2017-11-11 10:00:00 9.3 8 Sudoeste 14 Oeste 0 -- -- 73
2017-11-11 09:00:00 5.8 8 Sudoeste 14 Oeste 0 -- -- 84
2017-11-11 08:00:00 4 8 Oeste 10 Oeste 0 -- -- 87
2017-11-11 07:00:00 4.1 8 Sudoeste 14 Oeste 0 -- -- 85
2017-11-11 06:00:00 4.5 7 Oeste 18 Oeste 0 -- -- 85
2017-11-11 05:00:00 4.9 8 Sudoeste 19 Oeste 0 -- -- 81
2017-11-11 04:00:00 4.2 0 Calma 10 Oeste 0 -- -- 86
2017-11-11 03:00:00 5.9 5 Oeste 23 Oeste 0 -- -- 81
2017-11-11 02:00:00 4.4 5 Sudoeste 13 Oeste 0 -- -- 86
2017-11-11 01:00:00 5.9 3 Sudoeste 12 Oeste 0 -- -- 84
2017-11-11 00:00:00 5.6 8 Sudoeste 17 Oeste 0 -- -- 85
2017-11-10 23:00:00 5.9 4 Sudoeste 5 Sur 0 -- -- 82
2017-11-10 22:00:00 7.9 2 Noroeste 14 Oeste 0 -- -- 77
2017-11-10 21:00:00 8.3 4 Noroeste 8 Oeste 0 -- -- 80
2017-11-10 20:00:00 8.3 2 Este 13 Oeste 0 -- -- 81
2017-11-10 19:00:00 9.5 3 Sudoeste 27 Oeste 0 -- -- 76
2017-11-10 18:00:00 10.5 12 Oeste 29 Oeste 0 -- -- 76
2017-11-10 17:00:00 10.8 19 Oeste 41 Oeste 0 -- -- 72
2017-11-10 16:00:00 11.8 14 Oeste 41 Oeste 0 -- -- 66
2017-11-10 15:00:00 13.1 27 Oeste 39 Oeste 0 -- -- 61
2017-11-10 14:00:00 13.2 16 Oeste 33 Oeste 0 -- -- 60
2017-11-10 13:00:00 11.5 16 Oeste 32 Oeste 0 -- -- 63
2017-11-10 12:00:00 10.5 12 Oeste 27 Oeste 0 -- -- 67
2017-11-10 11:00:00 7.9 11 Oeste 35 Oeste 0 -- -- 77
2017-11-10 10:00:00 6.7 23 Oeste 36 Oeste 0 -- -- 82
2017-11-10 09:00:00 5.8 14 Oeste 27 Oeste 0 -- -- 84
2017-11-10 08:00:00 5.3 17 Oeste 30 Noroeste 0 -- -- 84
2017-11-10 07:00:00 3 3 Nordeste 25 Oeste 0 -- -- 81
2017-11-10 06:00:00 0.2 0 Calma 5 Este 0 -- -- 77
2017-11-10 05:00:00 0.8 0 Calma 9 Sudeste 0 -- -- 73
2017-11-10 04:00:00 1.8 2 Noroeste 14 Oeste 0 -- -- 69
2017-11-10 03:00:00 3.3 13 Oeste 21 Oeste 0 -- -- 64
2017-11-10 02:00:00 3.3 4 Sur 21 Noroeste 0 -- -- 65
2017-11-10 01:00:00 3.5 4 Oeste 15 Oeste 0 -- -- 64
2017-11-10 00:00:00 4.1 5 Oeste 13 Norte 0 -- -- 60
2017-11-09 23:00:00 4.6 5 Norte 18 Norte 0 -- -- 58
2017-11-09 22:00:00 4.7 2 Sur 26 Oeste 0 -- -- 62
2017-11-09 21:00:00 5.4 11 Oeste 24 Oeste 0 -- -- 58
2017-11-09 20:00:00 6.2 5 Noroeste 21 Noroeste 0 -- -- 57
2017-11-09 19:00:00 6.8 2 Este 17 Noroeste 0 -- -- 57
2017-11-09 18:00:00 7.5 7 Oeste 27 Norte 0 -- -- 55
2017-11-09 17:00:00 8.4 14 Noroeste 37 Noroeste 0 -- -- 53
2017-11-09 16:00:00 9.9 14 Noroeste 28 Norte 0 -- -- 49
2017-11-09 15:00:00 10 17 Noroeste 32 Noroeste 0 -- -- 45
2017-11-09 14:00:00 8.9 16 Noroeste 32 Noroeste 0 -- -- 49
2017-11-09 13:00:00 7.8 15 Noroeste 35 Noroeste 0 -- -- 59
2017-11-09 12:00:00 6.1 10 Oeste 34 Oeste 0 -- -- 67
2017-11-09 11:00:00 4.6 18 Oeste 28 Oeste 0 -- -- 74
2017-11-09 10:00:00 2.7 5 Sudoeste 11 Sur 0 -- -- 81
2017-11-09 09:00:00 1.5 3 Noroeste 10 Norte 0 -- -- 85
2017-11-09 08:00:00 1.1 6 Oeste 18 Sudoeste 0 -- -- 86
2017-11-09 07:00:00 0.5 2 Sur 9 Oeste 0 -- -- 86
2017-11-09 06:00:00 0.2 4 Oeste 17 Oeste 0 -- -- 87
2017-11-09 05:00:00 -0.1 8 Oeste 14 Oeste 0 -- -- 88
2017-11-09 04:00:00 -0.5 6 Oeste 21 Oeste 0 -- -- 85
2017-11-09 03:00:00 -0.3 6 Sudoeste 16 Sudoeste 0 -- -- 84
2017-11-09 02:00:00 -0.9 9 Sudoeste 15 Oeste 0 -- -- 85
2017-11-09 01:00:00 -0.8 2 Sudoeste 6 Sudeste 0 -- -- 85
2017-11-09 00:00:00 0.1 3 Sudoeste 9 Oeste 0 -- -- 84
2017-11-08 23:00:00 0.6 4 Sur 12 Sudoeste 0 -- -- 82
2017-11-08 22:00:00 2.7 4 Oeste 9 Oeste 0 -- -- 78
2017-11-08 21:00:00 4.1 2 Sur 17 Oeste 0 -- -- 75
2017-11-08 20:00:00 5.1 4 Oeste 16 Sudoeste 0 -- -- 73
2017-11-08 19:00:00 5.4 12 Oeste 30 Norte 0 -- -- 71
2017-11-08 18:00:00 7.4 14 Norte 29 Noroeste 0 -- -- 63
2017-11-08 17:00:00 9.7 13 Oeste 33 Oeste 0 -- -- 46
2017-11-08 16:00:00 10.4 17 Oeste 26 Noroeste 0 -- -- 43
2017-11-08 15:00:00 10 14 Oeste 23 Oeste 0 -- -- 47
2017-11-08 14:00:00 10.6 8 Oeste 22 Noroeste 0 -- -- 49
2017-11-08 13:00:00 10.3 9 Noroeste 23 Oeste 0 -- -- 49
2017-11-08 12:00:00 10 10 Oeste 27 Oeste 0 -- -- 51
2017-11-08 11:00:00 9.4 9 Oeste 20 Oeste 0 -- -- 57
2017-11-08 10:00:00 8 6 Sudoeste 12 Sudoeste 0 -- -- 68
2017-11-08 09:00:00 4.3 8 Sudoeste 16 Sudoeste 0 -- -- 84
2017-11-08 08:00:00 3.8 11 Oeste 19 Oeste 0 -- -- 86
2017-11-08 07:00:00 4.2 9 Oeste 14 Oeste 0 -- -- 84
2017-11-08 06:00:00 4.8 2 Sudoeste 5 Oeste 0 -- -- 80
2017-11-08 05:00:00 7.1 3 Nordeste 7 Sudoeste 0 -- -- 75
2017-11-08 04:00:00 7.3 9 Oeste 14 Oeste 0 -- -- 76
2017-11-08 03:00:00 6.8 0 Calma 6 Nordeste -- -- -- 76
2017-11-08 02:00:00 6.6 0 Calma 10 Sudoeste 0 -- -- 75
2017-11-08 01:00:00 6.5 4 Sudoeste 11 Sudoeste 0 -- -- 75
2017-11-08 00:00:00 5.4 8 Sudoeste 16 Sudoeste 0 -- -- 76
2017-11-07 23:00:00 5.6 13 Sudoeste 18 Sudoeste 0 -- -- 77
2017-11-07 22:00:00 6.4 12 Sudoeste 22 Sudoeste 0 -- -- 73
2017-11-07 21:00:00 6.6 10 Sudoeste 23 Sudoeste 0 -- -- 72
2017-11-07 20:00:00 7.6 20 Sudoeste 27 Sudoeste 0 -- -- 69
2017-11-07 19:00:00 8.8 18 Sudoeste 31 Sudoeste 0 -- -- 63
2017-11-07 18:00:00 10.6 19 Sudoeste 34 Sudoeste 0 -- -- 56
2017-11-07 17:00:00 12.8 18 Sudoeste 37 Sudoeste 0 -- -- 47
2017-11-07 16:00:00 13.9 24 Sudoeste 32 Sudoeste 0 -- -- 45
2017-11-07 15:00:00 13.4 16 Oeste 32 Oeste 0 -- -- 48
2017-11-07 14:00:00 12.8 17 Sudoeste 34 Sudoeste 0 -- -- 50
2017-11-07 13:00:00 11.3 15 Oeste 28 Oeste 0 -- -- 55
2017-11-07 12:00:00 9.5 21 Oeste 34 Oeste 0 -- -- 64
2017-11-07 11:00:00 7.9 17 Oeste 29 Oeste 0 -- -- 68
2017-11-07 10:00:00 5.7 10 Oeste 26 Sudoeste 0 -- -- 76
2017-11-07 09:00:00 3.8 3 Oeste 6 Sudoeste 0 -- -- 83
2017-11-07 08:00:00 1.5 3 Oeste 11 Sur 0 -- -- 86
2017-11-07 07:00:00 1.8 0 Calma 25 Sudoeste 0 -- -- 86
2017-11-07 06:00:00 2.5 21 Sudoeste 28 Sudoeste 0 -- -- 86
2017-11-07 05:00:00 1.5 9 Sudoeste 18 Oeste 0 -- -- 87
2017-11-07 04:00:00 2.3 9 Sudoeste 15 Sudoeste 0 -- -- 81
2017-11-07 03:00:00 2.3 10 Oeste 15 Oeste 0 -- -- 79
2017-11-07 02:00:00 2.9 8 Oeste 15 Oeste 0 -- -- 80
2017-11-07 01:00:00 2.6 6 Sudoeste 10 Sudoeste 0 -- -- 77
2017-11-07 00:00:00 2.6 4 Sudoeste 8 Sudoeste 0 -- -- 76
2017-11-06 23:00:00 4 4 Sur 15 Oeste 0 -- -- 70
2017-11-06 22:00:00 4.5 6 Oeste 17 Noroeste 0 -- -- 69
2017-11-06 21:00:00 5 9 Noroeste 28 Noroeste 0 -- -- 67
2017-11-06 20:00:00 5.7 10 Noroeste 26 Noroeste 0 -- -- 67
2017-11-06 19:00:00 6.6 4 Este 10 Este 0 -- -- 62
2017-11-06 18:00:00 7.9 4 Sur 31 Norte 0 -- -- 60
2017-11-06 17:00:00 10.6 12 Noroeste 30 Noroeste 0 -- -- 50
2017-11-06 16:00:00 11 10 Noroeste 31 Oeste 0 -- -- 48
2017-11-06 15:00:00 11.1 15 Noroeste 28 Noroeste 0 -- -- 48
2017-11-06 14:00:00 10.5 15 Noroeste 33 Noroeste 0 -- -- 50
2017-11-06 13:00:00 10.3 12 Noroeste 26 Oeste 0 -- -- 55
2017-11-06 12:00:00 9.9 15 Oeste 28 Oeste 0 -- -- 57
2017-11-06 11:00:00 8.7 8 Noroeste 21 Oeste 0 -- -- 67
2017-11-06 10:00:00 7.2 12 Oeste 22 Oeste 0 -- -- 74
2017-11-06 09:00:00 5.8 14 Oeste 19 Oeste 0 -- -- 81
2017-11-06 08:00:00 3.7 5 Sudoeste 21 Oeste 0 -- -- 86
2017-11-06 07:00:00 4.6 14 Oeste 29 Oeste 0 -- -- 84
2017-11-06 06:00:00 4.9 19 Oeste 33 Oeste 0 -- -- 81
2017-11-06 05:00:00 3.5 6 Sudoeste 24 Oeste 0 -- -- 83
2017-11-06 04:00:00 2.9 4 Sudoeste 10 Oeste 0 -- -- 88
2017-11-06 03:00:00 3.3 5 Sudoeste 17 Sudoeste 0 -- -- 86
2017-11-06 02:00:00 3 3 Sur 10 Sudoeste 0 -- -- 86
2017-11-06 01:00:00 3.3 5 Sudoeste 11 Sudoeste 0 -- -- 83
2017-11-06 00:00:00 3.8 2 Sudoeste 12 Sudoeste 0 -- -- 79
2017-11-05 23:00:00 5.3 7 Sudoeste 27 Oeste 0 -- -- 75
2017-11-05 22:00:00 6.2 17 Oeste 26 Oeste 0 -- -- 72
2017-11-05 21:00:00 6 3 Sudoeste 14 Oeste 0 -- -- 72
2017-11-05 20:00:00 7.1 9 Sudoeste 18 Oeste 0 -- -- 69
2017-11-05 19:00:00 8.6 13 Oeste 26 Oeste 0 -- -- 63
2017-11-05 18:00:00 9.8 12 Oeste 24 Oeste 0 -- -- 60
2017-11-05 17:00:00 10 12 Oeste 35 Oeste 0 -- -- 65
2017-11-05 16:00:00 11.5 20 Oeste 40 Oeste 0 -- -- 54
2017-11-05 15:00:00 11.9 17 Oeste 30 Oeste 0 -- -- 51
2017-11-05 14:00:00 12.3 17 Oeste 37 Oeste 0 -- -- 48
2017-11-05 13:00:00 11.4 17 Oeste 32 Oeste 0 -- -- 57
2017-11-05 12:00:00 11.3 12 Oeste 24 Oeste 0 -- -- 62
2017-11-05 11:00:00 10.5 9 Noroeste 20 Oeste 0 -- -- 64
2017-11-05 10:00:00 9.1 10 Oeste 18 Oeste 0 -- -- 74
2017-11-05 09:00:00 7.9 3 Oeste 14 Oeste 0 -- -- 83
2017-11-05 08:00:00 7.5 0 Calma 13 Oeste 0 -- -- 84
2017-11-05 07:00:00 7.9 8 Oeste 13 Oeste 0 -- -- 86
2017-11-05 06:00:00 8 2 Sur 15 Oeste 0 -- -- 87
2017-11-05 05:00:00 8.8 5 Sudoeste 18 Oeste 0 -- -- 84
2017-11-05 04:00:00 8.9 4 Oeste 11 Oeste 0 -- -- 86
2017-11-05 03:00:00 8.9 6 Oeste 15 Sudoeste 0 -- -- 88
2017-11-05 02:00:00 9.2 4 Sudoeste 12 Oeste 0 -- -- 89
2017-11-05 01:00:00 10 4 Sur 13 Oeste 0 -- -- 88
2017-11-05 00:00:00 9.8 2 Oeste 15 Sudoeste 0 -- -- 89
2017-11-04 23:00:00 10.1 7 Sudoeste 16 Sudoeste 0 -- -- 89
2017-11-04 22:00:00 10.2 9 Sudoeste 12 Sudoeste 0 -- -- 89
2017-11-04 21:00:00 10.3 7 Sudoeste 18 Sudoeste 0 -- -- 89
2017-11-04 20:00:00 10.4 12 Sudoeste 17 Oeste 0 -- -- 88
2017-11-04 19:00:00 10.4 13 Sudoeste 19 Sudoeste 0 -- -- 89
2017-11-04 18:00:00 11 11 Sudoeste 14 Sudoeste 0.2 -- -- 88
2017-11-04 17:00:00 10.6 12 Sudoeste 31 Sudoeste 1.2 -- -- 87
2017-11-04 16:00:00 13.7 18 Sur 30 Sur 0 -- -- 72
2017-11-04 15:00:00 13.1 15 Sur 27 Sur 0 -- -- 73
2017-11-04 14:00:00 13.5 17 Sudoeste 25 Sudoeste 0 -- -- 71
2017-11-04 13:00:00 13.8 18 Sudoeste 25 Sudoeste 0 -- -- 72
2017-11-04 12:00:00 12.8 13 Sudoeste 26 Sur 0.8 -- -- 80
2017-11-04 11:00:00 12.5 18 Sur 32 Sudoeste 0 -- -- 81
2017-11-04 10:00:00 11.2 7 Sur 14 Sur 0 -- -- 85
2017-11-04 09:00:00 9.3 4 Sur 11 Sudoeste 0 -- -- 95
2017-11-04 08:00:00 7.8 3 Norte 6 Norte 0 -- -- 94
2017-11-04 07:00:00 8 3 Norte 8 Norte 0.6 -- -- 94
2017-11-04 06:00:00 8.1 4 Norte 10 Norte 0.4 -- -- 93
2017-11-04 05:00:00 8.5 3 Nordeste 5 Nordeste 0.2 -- -- 92
2017-11-04 04:00:00 8.8 0 Calma 7 Norte 0.2 -- -- 92
2017-11-04 03:00:00 8.7 3 Nordeste 7 Sudoeste 1 -- -- 92
2017-11-04 02:00:00 7.6 4 Sudoeste 10 Sur 0.4 -- -- 89
2017-11-04 01:00:00 7.7 3 Sudoeste 14 Oeste 0 -- -- 85
2017-11-04 00:00:00 8.4 12 Oeste 14 Oeste 0 -- -- 84
2017-11-03 23:00:00 8.8 11 Sudoeste 15 Sudoeste 0 -- -- 81
2017-11-03 22:00:00 8.8 7 Oeste 9 Sudoeste 0 -- -- 83
2017-11-03 21:00:00 10.1 7 Sudoeste 14 Oeste 0 -- -- 75
2017-11-03 20:00:00 11.3 6 Oeste 10 Sudoeste 0 -- -- 71
2017-11-03 19:00:00 12.8 0 Calma 6 Sudoeste 0 -- -- 66
2017-11-03 18:00:00 14.8 5 Sudoeste 18 Sudoeste 0 -- -- 62
2017-11-03 17:00:00 16.9 14 Sudoeste 27 Sudoeste 0 -- -- 55
2017-11-03 16:00:00 17.4 19 Sur 30 Sudoeste 0 -- -- 54
2017-11-03 15:00:00 17 21 Sudoeste 32 Sudoeste 0 -- -- 56
2017-11-03 14:00:00 16.7 22 Sur 32 Sudoeste 0 -- -- 59
2017-11-03 13:00:00 16.6 18 Sur 30 Sudoeste 0 -- -- 59
2017-11-03 12:00:00 16.4 21 Sur 42 Sur 0 -- -- 63
2017-11-03 11:00:00 14.4 16 Sur 27 Sur 0 -- -- 71
2017-11-03 10:00:00 12.7 16 Sudoeste 24 Sur 0 -- -- 78
2017-11-03 09:00:00 12.2 18 Sudoeste 29 Sudoeste 0 -- -- 78
2017-11-03 08:00:00 8 0 Calma 4 Sudeste 0 -- -- 84
2017-11-03 07:00:00 8 2 Sudoeste 6 Sudoeste 0 -- -- 84
2017-11-03 06:00:00 8.1 0 Calma 3 Sur 0 -- -- 82
2017-11-03 05:00:00 8.7 0 Calma 9 Oeste 0 -- -- 81
2017-11-03 04:00:00 9.1 4 Sudoeste 9 Sudoeste 0 -- -- 79
2017-11-03 03:00:00 9.1 7 Sudoeste 9 Sudoeste 0 -- -- 81
2017-11-03 02:00:00 8.9 6 Sudoeste 10 Sudoeste 0 -- -- 81
2017-11-03 01:00:00 8.7 8 Sudoeste 10 Sudoeste 0 -- -- 81
2017-11-03 00:00:00 9.9 8 Oeste 12 Sudoeste 0 -- -- 78
2017-11-02 23:00:00 10.8 5 Sudoeste 9 Sudoeste 0 -- -- 74
2017-11-02 22:00:00 11.5 6 Oeste 9 Sudoeste 0 -- -- 73
2017-11-02 21:00:00 11.6 5 Sudoeste 9 Sudoeste 0 -- -- 71
2017-11-02 20:00:00 12.2 6 Sudoeste 10 Sudoeste 0 -- -- 68
2017-11-02 19:00:00 12.3 3 Sudoeste 9 Sudoeste 0 -- -- 64
2017-11-02 18:00:00 15.1 5 Sudoeste 21 Sur 0 -- -- 57
2017-11-02 17:00:00 17.3 14 Sur 27 Sur 0 -- -- 50
2017-11-02 16:00:00 18 13 Sur 26 Sur 0 -- -- 48
2017-11-02 15:00:00 18.2 10 Sur 21 Sudoeste 0 -- -- 52
2017-11-02 14:00:00 17.4 8 Sur 24 Sudoeste 0 -- -- 58
2017-11-02 13:00:00 16.8 10 Sudoeste 19 Sur 0 -- -- 61
2017-11-02 12:00:00 15.8 14 Sudoeste 21 Sudeste 0 -- -- 64
2017-11-02 11:00:00 12.2 6 Nordeste 12 Sur 0 -- -- 73
2017-11-02 10:00:00 13.3 10 Sur 20 Sur 0 -- -- 76
2017-11-02 09:00:00 8.2 3 Nordeste 8 Sudoeste 0 -- -- 84
2017-11-02 08:00:00 6.1 0 Calma 3 Norte 0 -- -- 90
2017-11-02 07:00:00 5.6 0 Calma 8 Sur 0 -- -- 89
2017-11-02 06:00:00 5.3 0 Calma 3 Sudoeste 0 -- -- 89
2017-11-02 05:00:00 5.3 0 Calma 3 Este 0 -- -- 86
2017-11-02 04:00:00 6 0 Calma 5 Norte 0 -- -- 84
2017-11-02 03:00:00 6.4 0 Calma 6 Norte 0 -- -- 82
2017-11-02 02:00:00 7.7 2 Sudeste 10 Oeste 0 -- -- 80
2017-11-02 01:00:00 7.7 4 Oeste 9 Oeste 0 -- -- 81
2017-11-02 00:00:00 7.7 0 Calma 12 Sudoeste 0 -- -- 77
2017-11-01 23:00:00 8.5 9 Sudoeste 13 Sudoeste 0 -- -- 76
2017-11-01 22:00:00 9.8 2 Sudoeste 15 Sudoeste 0 -- -- 71
2017-11-01 21:00:00 10.2 7 Sudoeste 13 Sudoeste 0 -- -- 70
2017-11-01 20:00:00 11.6 10 Sudoeste 13 Oeste 0 -- -- 65
2017-11-01 19:00:00 12.9 3 Sudoeste 7 Sudoeste 0 -- -- 59
2017-11-01 18:00:00 16.7 7 Sudoeste 19 Sudoeste 0 -- -- 51
2017-11-01 17:00:00 18.7 13 Sur 27 Sudoeste 0 -- -- 47
2017-11-01 16:00:00 19.3 18 Sudoeste 28 Sur 0 -- -- 46
2017-11-01 15:00:00 19.3 18 Sur 27 Sudoeste 0 -- -- 47
2017-11-01 14:00:00 18.6 17 Sudoeste 29 Sudoeste 0 -- -- 50
2017-11-01 13:00:00 17.4 16 Sur 28 Sudoeste 0 -- -- 55
2017-11-01 12:00:00 16.3 16 Sur 28 Sur 0 -- -- 59
2017-11-01 11:00:00 12.7 7 Sudeste 20 Sur 0 -- -- 76
2017-11-01 10:00:00 8.6 3 Nordeste 6 Sudeste 0 -- -- 78
2017-11-01 09:00:00 7.2 4 Nordeste 6 Este 0 -- -- 82
2017-11-01 08:00:00 5.5 4 Sudoeste 11 Norte 0 -- -- 89
2017-11-01 07:00:00 4 4 Norte 9 Norte 0 -- -- 92
2017-11-01 06:00:00 3.2 0 Calma 4 Norte 0 -- -- 89
2017-11-01 05:00:00 4.4 0 Calma 5 Nordeste 0 -- -- 86
2017-11-01 04:00:00 5.2 3 Nordeste 5 Nordeste 0 -- -- 87
2017-11-01 03:00:00 6.2 5 Sudoeste 15 Sudoeste 0 -- -- 84
2017-11-01 02:00:00 6.2 9 Sudoeste 13 Sudoeste 0 -- -- 86
2017-11-01 01:00:00 6.5 10 Sudoeste 12 Sudoeste 0 -- -- 84
2017-11-01 00:00:00 6.8 9 Sudoeste 13 Sudoeste 0 -- -- 84
2017-10-31 23:00:00 7.4 9 Sudoeste 14 Sudoeste 0 -- -- 80
2017-10-31 22:00:00 8.8 8 Sudoeste 14 Sudoeste 0 -- -- 76
2017-10-31 21:00:00 9.8 9 Sudoeste 15 Oeste 0 -- -- 72
2017-10-31 20:00:00 10.3 6 Sudoeste 10 Sudoeste 0 -- -- 68
2017-10-31 19:00:00 13.1 0 Calma 10 Sudoeste 0 -- -- 60
2017-10-31 18:00:00 16.2 9 Sudoeste 13 Sur 0 -- -- 54
2017-10-31 17:00:00 17.7 10 Sur 28 Sudoeste 0 -- -- 51
2017-10-31 16:00:00 19.2 15 Sur 27 Sur 0 -- -- 46
2017-10-31 15:00:00 18.4 12 Sur 27 Sur 0 -- -- 49
2017-10-31 14:00:00 15.4 6 Nordeste 10 Este 0 -- -- 53
2017-10-31 13:00:00 12.9 7 Este 14 Este 0 -- -- 58
2017-10-31 12:00:00 11.9 6 Nordeste 12 Norte 0 -- -- 60
2017-10-31 11:00:00 9.9 2 Noroeste 7 Nordeste 0 -- -- 65
2017-10-31 10:00:00 6.8 2 Nordeste 5 Nordeste 0 -- -- 75
2017-10-31 09:00:00 4.5 2 Sur 6 Sur 0 -- -- 81
2017-10-31 08:00:00 2.4 4 Sudoeste 8 Sudoeste 0 -- -- 88
2017-10-31 07:00:00 1.6 0 Calma 9 Sudoeste 0 -- -- 87
2017-10-31 06:00:00 1.1 6 Sudoeste 9 Sudoeste 0 -- -- 87
2017-10-31 05:00:00 1.5 6 Sudoeste 10 Oeste 0 -- -- 85
2017-10-31 04:00:00 2.1 7 Sudoeste 12 Sudoeste 0 -- -- 86
2017-10-31 03:00:00 2.2 6 Sudoeste 10 Sudoeste 0 -- -- 84
2017-10-31 02:00:00 3.1 2 Sudoeste 6 Sudoeste 0 -- -- 81
2017-10-31 01:00:00 4.9 0 Calma 4 Sudeste 0 -- -- 80
2017-10-31 00:00:00 6.9 2 Sudeste 13 Norte 0 -- -- 74
2017-10-30 23:00:00 7.3 3 Oeste 8 Noroeste 0 -- -- 76
2017-10-30 22:00:00 8.4 0 Calma 10 Norte 0 -- -- 74
2017-10-30 21:00:00 9.6 5 Norte 10 Nordeste 0 -- -- 71
2017-10-30 20:00:00 10.8 5 Nordeste 23 Norte 0 -- -- 68
2017-10-30 19:00:00 12.2 7 Noroeste 21 Noroeste 0 -- -- 60
2017-10-30 18:00:00 14.2 11 Noroeste 27 Oeste 0 -- -- 54
2017-10-30 17:00:00 15.8 11 Noroeste 30 Noroeste 0 -- -- 49
2017-10-30 16:00:00 16.4 15 Noroeste 35 Noroeste 0 -- -- 48
2017-10-30 15:00:00 16.8 17 Noroeste 34 Noroeste 0 -- -- 49
2017-10-30 14:00:00 16.7 15 Norte 35 Noroeste 0 -- -- 50
2017-10-30 13:00:00 16 17 Norte 30 Norte 0 -- -- 54
2017-10-30 12:00:00 15.6 19 Norte 44 Norte 0 -- -- 55
2017-10-30 11:00:00 13.8 19 Norte 41 Nordeste 0 -- -- 60
2017-10-30 10:00:00 12.6 3 Nordeste 12 Norte 0 -- -- 66
2017-10-30 09:00:00 8.4 2 Sur 8 Sudoeste 0 -- -- 80
2017-10-30 08:00:00 5.7 5 Sudoeste 10 Oeste 0 -- -- 86
2017-10-30 07:00:00 4.1 5 Sudoeste 8 Sudoeste 0 -- -- 88
2017-10-30 06:00:00 4.3 2 Sudoeste 5 Sudoeste 0 -- -- 88
2017-10-30 05:00:00 4 2 Sudoeste 5 Sudoeste 0 -- -- 87
2017-10-30 04:00:00 4.3 0 Calma 8 Sudoeste 0 -- -- 85
2017-10-30 03:00:00 5.2 3 Sudoeste 14 Sudoeste 0 -- -- 85
2017-10-30 02:00:00 6.5 5 Sudoeste 11 Oeste 0 -- -- 82
2017-10-30 01:00:00 6.3 5 Sudoeste 10 Sudoeste 0 -- -- 81
2017-10-30 00:00:00 7.4 5 Sudoeste 10 Sudoeste 0 -- -- 77
2017-10-29 23:00:00 8.6 2 Oeste 17 Norte 0 -- -- 74
2017-10-29 22:00:00 10.5 14 Noroeste 24 Noroeste 0 -- -- 73
2017-10-29 21:00:00 10.5 5 Norte 21 Norte 0 -- -- 68
2017-10-29 20:00:00 12 10 Norte 24 Norte 0 -- -- 62
2017-10-29 19:00:00 13.4 7 Norte 16 Norte 0 -- -- 54
2017-10-29 18:00:00 15.6 12 Norte 25 Norte 0 -- -- 42
2017-10-29 17:00:00 18.1 11 Norte 23 Norte 0 -- -- 35
2017-10-29 16:00:00 18.9 14 Norte 27 Norte 0 -- -- 32
2017-10-29 15:00:00 19.3 14 Norte 28 Norte 0 -- -- 22
2017-10-29 14:00:00 19.4 12 Norte 26 Norte 0 -- -- 19
2017-10-29 13:00:00 18.5 12 Norte 22 Nordeste 0 -- -- 20
2017-10-29 12:00:00 16.7 8 Norte 18 Norte 0 -- -- 27
2017-10-29 11:00:00 15 6 Noroeste 18 Noroeste 0 -- -- 35
2017-10-29 10:00:00 12.4 3 Sudeste 6 Sudeste 0 -- -- 46
2017-10-29 09:00:00 7.5 3 Sur 13 Sudoeste 0 -- -- 64
2017-10-29 08:00:00 3.5 10 Sudoeste 14 Sudoeste 0 -- -- 75
2017-10-29 07:00:00 4.3 8 Sudoeste 14 Oeste 0 -- -- 66
2017-10-29 06:00:00 3.7 13 Sudoeste 17 Sur 0 -- -- 66
2017-10-29 05:00:00 4.4 12 Sudoeste 17 Sudoeste 0 -- -- 61
2017-10-29 04:00:00 3.9 11 Sudoeste 16 Sudoeste 0 -- -- 68
2017-10-29 03:00:00 4.2 11 Sudoeste 15 Sudoeste 0 -- -- 73
2017-10-29 02:00:00 4.3 11 Sudoeste 17 Sudoeste 0 -- -- 76
2017-10-29 01:00:00 5.4 10 Sudoeste 14 Sudoeste 0 -- -- 76
2017-10-29 00:00:00 6.1 5 Sudoeste 13 Oeste 0 -- -- 73
2017-10-28 23:00:00 7.2 6 Sudoeste 13 Sudoeste 0 -- -- 70
2017-10-28 22:00:00 9.2 2 Sudoeste 8 Sudoeste 0 -- -- 63
2017-10-28 21:00:00 12.3 3 Nordeste 12 Noroeste 0 -- -- 58
2017-10-28 20:00:00 14.1 8 Norte 21 Norte 0 -- -- 51
2017-10-28 19:00:00 16.1 8 Nordeste 26 Norte 0 -- -- 44
2017-10-28 18:00:00 17.7 13 Norte 26 Norte 0 -- -- 38
2017-10-28 17:00:00 18.4 14 Norte 30 Norte 0 -- -- 39
2017-10-28 16:00:00 18.5 17 Norte 35 Nordeste 0 -- -- 40
2017-10-28 15:00:00 18.4 15 Norte 36 Norte 0 -- -- 38
2017-10-28 14:00:00 18.3 16 Norte 39 Norte 0 -- -- 38
2017-10-28 13:00:00 18.2 15 Norte 30 Norte 0 -- -- 39
2017-10-28 12:00:00 15.7 9 Noroeste 16 Noroeste 0 -- -- 56
2017-10-28 11:00:00 13.6 6 Noroeste 13 Sudoeste 0 -- -- 64
2017-10-28 10:00:00 10.1 4 Sudoeste 8 Sur 0 -- -- 79
2017-10-28 09:00:00 6 6 Sur 10 Oeste 0 -- -- 87
2017-10-28 08:00:00 5.1 4 Sudoeste 9 Sudeste 0 -- -- 89
2017-10-28 07:00:00 5.8 0 Calma 10 Sudoeste 0 -- -- 88
2017-10-28 06:00:00 7.2 8 Oeste 12 Oeste 0 -- -- 88
2017-10-28 05:00:00 6.3 0 Calma 9 Sudoeste 0 -- -- 85
2017-10-28 04:00:00 6.9 4 Sudoeste 10 Sudoeste 0 -- -- 82
2017-10-28 03:00:00 7.8 4 Oeste 8 Sudoeste 0 -- -- 83
2017-10-28 02:00:00 7.6 2 Sudoeste 6 Oeste 0 -- -- 80
2017-10-28 01:00:00 8.6 4 Sur 7 Sur 0 -- -- 78
2017-10-28 00:00:00 9.9 0 Calma 8 Sudoeste 0 -- -- 73
2017-10-27 23:00:00 11.1 6 Sudoeste 10 Sudoeste 0 -- -- 70
2017-10-27 22:00:00 12.9 0 Calma 6 Norte 0 -- -- 63
2017-10-27 21:00:00 15.3 0 Calma 18 Nordeste 0 -- -- 57
2017-10-27 20:00:00 17.5 8 Noroeste 28 Norte 0 -- -- 48
2017-10-27 19:00:00 19.9 8 Noroeste 24 Norte 0 -- -- 40
2017-10-27 18:00:00 23.2 13 Noroeste 25 Noroeste 0 -- -- 28
2017-10-27 17:00:00 25.2 8 Oeste 29 Oeste 0 -- -- 30
2017-10-27 16:00:00 24.5 14 Oeste 27 Oeste 0 -- -- 30
2017-10-27 15:00:00 24.1 8 Oeste 18 Noroeste 0 -- -- 29
2017-10-27 14:00:00 23.1 8 Noroeste 21 Oeste 0 -- -- 33
2017-10-27 13:00:00 21.8 10 Noroeste 19 Noroeste 0 -- -- 36
2017-10-27 12:00:00 19.8 6 Norte 13 Nordeste 0 -- -- 40
2017-10-27 11:00:00 16.4 0 Calma 10 Sudoeste 0 -- -- 47
2017-10-27 10:00:00 11.9 10 Sudoeste 17 Sudoeste 0 -- -- 58
2017-10-27 09:00:00 8.9 12 Sudoeste 17 Sudoeste 0 -- -- 66
2017-10-27 08:00:00 8.6 11 Sudoeste 17 Sudoeste 0 -- -- 66
2017-10-27 07:00:00 9.4 12 Sudoeste 19 Sudoeste 0 -- -- 63
2017-10-27 06:00:00 9.8 14 Sudoeste 18 Sudoeste 0 -- -- 62
2017-10-27 05:00:00 9.4 12 Sudoeste 14 Sudoeste 0 -- -- 64
2017-10-27 04:00:00 9.6 12 Sudoeste 18 Sudoeste 0 -- -- 64
2017-10-27 03:00:00 10.6 14 Sudoeste 17 Sudoeste 0 -- -- 60
2017-10-27 02:00:00 11 12 Sudoeste 19 Oeste 0 -- -- 59
2017-10-27 01:00:00 12 17 Oeste 20 Sudoeste 0 -- -- 55
2017-10-27 00:00:00 12.5 14 Sudoeste 17 Sudoeste 0 -- -- 54
2017-10-26 23:00:00 12.8 12 Sudoeste 14 Sudoeste 0 -- -- 54
2017-10-26 22:00:00 14.6 13 Sudoeste 16 Oeste 0 -- -- 50
2017-10-26 21:00:00 15.8 10 Sudoeste 13 Sudoeste 0 -- -- 47
2017-10-26 20:00:00 18.1 6 Sudoeste 15 Oeste 0 -- -- 41
2017-10-26 19:00:00 22.9 13 Oeste 20 Oeste 0 -- -- 31
2017-10-26 18:00:00 25.5 11 Oeste 17 Oeste 0 -- -- 29
2017-10-26 17:00:00 27 7 Noroeste 17 Sudoeste 0 -- -- 26
2017-10-26 16:00:00 27 6 Oeste 14 Sudoeste 0 -- -- 27
2017-10-26 15:00:00 25.9 2 Sudoeste 9 Sudeste 0 -- -- 28
2017-10-26 14:00:00 25 3 Sur 8 Sudeste 0 -- -- 30
2017-10-26 13:00:00 21.9 2 Sudeste 8 Nordeste 0 -- -- 37
2017-10-26 12:00:00 17.4 4 Nordeste 10 Nordeste 0 -- -- 45
2017-10-26 11:00:00 15.4 5 Nordeste 9 Norte 0 -- -- 49
2017-10-26 10:00:00 11.8 4 Nordeste 6 Nordeste 0 -- -- 59
2017-10-26 09:00:00 9.6 4 Nordeste 20 Oeste 0 -- -- 64
2017-10-26 08:00:00 9.9 17 Oeste 23 Oeste 0 -- -- 65
2017-10-26 07:00:00 8.9 9 Sudoeste 16 Sudoeste 0 -- -- 68
2017-10-26 06:00:00 9.8 9 Sudoeste 16 Sudoeste 0 -- -- 63
2017-10-26 05:00:00 9.9 12 Sudoeste 16 Sudoeste 0 -- -- 63
2017-10-26 04:00:00 10.7 12 Sudoeste 17 Sudoeste 0 -- -- 60
2017-10-26 03:00:00 11.1 13 Sudoeste 22 Oeste 0 -- -- 59
2017-10-26 02:00:00 9.7 13 Sudoeste 17 Sudoeste 0 -- -- 65
2017-10-26 01:00:00 10.1 12 Sudoeste 16 Sudoeste 0 -- -- 63
2017-10-26 00:00:00 12.2 12 Sudoeste 14 Sudoeste 0 -- -- 57